Time;durP1;ratioP1;P1;durP2;ratioP2;P2;SDS_P1;SDS_P2;PMS_P1;PMS_P2;Temp;Humidity;BMP_temperature;BMP_pressure;BME280_temperature;BME280_humidity;BME280_pressure;Samples;Min_cycle;Max_cycle;Signal;HPM_P1;HPM_P2
2021/01/10 00:00:30;;;;;;;27.30;16.77;;;;;;;-1.35;77.32;97117.95;1801149;80;21143;-88
2021/01/10 00:02:58;;;;;;;27.22;15.58;;;;;;;-1.34;77.37;97122.66;1801250;79;21147;-88
2021/01/10 00:05:31;;;;;;;30.30;15.98;;;;;;;-1.32;77.39;97121.47;1801244;79;21131;-88
2021/01/10 00:07:59;;;;;;;35.45;20.92;;;;;;;-1.31;77.48;97128.27;1801209;79;21117;-88
2021/01/10 00:10:29;;;;;;;28.10;16.32;;;;;;;-1.36;77.55;97118.14;1801226;80;21126;-88
2021/01/10 00:12:58;;;;;;;28.15;16.87;;;;;;;-1.33;77.78;97122.46;1801463;80;21140;-88
2021/01/10 00:15:26;;;;;;;29.32;16.42;;;;;;;-1.27;77.85;97119.58;1801146;80;21154;-88
2021/01/10 00:17:54;;;;;;;32.95;17.77;;;;;;;-1.28;77.59;97126.59;1801247;80;21507;-88
2021/01/10 00:20:23;;;;;;;33.75;17.40;;;;;;;-1.26;77.61;97128.52;1801082;80;21108;-88
2021/01/10 00:22:54;;;;;;;31.50;16.42;;;;;;;-1.23;77.65;97137.73;1801407;80;21517;-89
2021/01/10 00:25:23;;;;;;;29.65;16.93;;;;;;;-1.21;77.60;97137.85;1802118;80;21127;-88
2021/01/10 00:27:51;;;;;;;35.25;16.55;;;;;;;-1.16;77.54;97132.56;1802033;79;21138;-88
2021/01/10 00:30:21;;;;;;;31.75;18.17;;;;;;;-1.12;77.55;97133.31;1801973;80;21510;-88
2021/01/10 00:32:51;;;;;;;33.00;17.35;;;;;;;-1.09;77.39;97143.83;1802159;79;21107;-88
2021/01/10 00:35:19;;;;;;;29.35;18.80;;;;;;;-1.13;77.10;97143.88;1802008;79;21479;-88
2021/01/10 00:37:52;;;;;;;32.45;17.45;;;;;;;-1.13;77.10;97143.88;1802037;79;21138;-88
2021/01/10 00:40:21;;;;;;;32.75;15.90;;;;;;;-1.11;77.29;97139.31;1802148;80;21152;-88
2021/01/10 00:42:49;;;;;;;37.40;20.45;;;;;;;-1.07;77.28;97143.94;1802205;79;21099;-88
2021/01/10 00:45:18;;;;;;;33.67;18.07;;;;;;;-1.13;77.09;97141.28;1802027;79;21131;-89
2021/01/10 00:47:46;;;;;;;30.68;17.40;;;;;;;-1.15;77.03;97145.88;1802042;79;21096;-88
2021/01/10 00:50:14;;;;;;;32.78;17.40;;;;;;;-1.15;76.99;97145.88;1801861;79;21127;-88
2021/01/10 00:52:41;;;;;;;32.65;17.42;;;;;;;-1.12;77.06;97145.52;1801964;80;21119;-89
2021/01/10 00:55:09;;;;;;;34.03;18.30;;;;;;;-1.09;77.03;97150.33;1802170;80;21487;-88
2021/01/10 00:57:36;;;;;;;32.13;17.80;;;;;;;-1.10;76.99;97152.13;1802222;79;21095;-88
2021/01/10 01:00:13;;;;;;;34.10;18.50;;;;;;;-1.16;76.87;97154.18;1801882;79;21147;-88
2021/01/10 01:02:41;;;;;;;35.25;18.40;;;;;;;-1.19;76.90;97164.97;1801994;79;21495;-89
2021/01/10 01:05:09;;;;;;;32.95;17.45;;;;;;;-1.18;76.95;97165.77;1801970;80;21138;-89
2021/01/10 01:07:36;;;;;;;34.35;17.73;;;;;;;-1.14;77.05;97168.30;1802088;79;21495;-89
2021/01/10 01:10:04;;;;;;;32.10;17.85;;;;;;;-1.21;76.75;97170.37;1802105;79;21512;-89
2021/01/10 01:12:32;;;;;;;32.78;17.98;;;;;;;-1.28;76.74;97171.30;1802056;79;21127;-89
2021/01/10 01:15:00;;;;;;;32.38;15.53;;;;;;;-1.33;76.83;97171.88;1801909;79;21119;-88
2021/01/10 01:17:27;;;;;;;30.32;15.70;;;;;;;-1.31;76.95;97175.09;1802108;79;21139;-88
2021/01/10 01:19:54;;;;;;;37.75;17.40;;;;;;;-1.23;77.01;97169.76;1801849;79;21108;-88
2021/01/10 01:22:21;;;;;;;29.40;16.45;;;;;;;-1.18;76.95;97171.78;1802069;80;21273;-89
2021/01/10 01:24:48;;;;;;;30.40;16.05;;;;;;;-1.13;76.92;97173.80;1801182;79;21139;-88
2021/01/10 01:27:15;;;;;;;31.50;17.02;;;;;;;-1.11;76.76;97168.73;1801192;79;21459;-89
2021/01/10 01:29:42;;;;;;;34.50;17.65;;;;;;;-1.14;76.75;97171.70;1801292;80;21523;-88
2021/01/10 01:32:09;;;;;;;30.43;17.80;;;;;;;-1.08;76.87;97172.75;1801059;80;21099;-88
2021/01/10 01:34:35;;;;;;;33.28;17.70;;;;;;;-1.02;76.85;97169.38;1801216;79;21504;-88
2021/01/10 01:37:04;;;;;;;29.98;17.48;;;;;;;-1.04;76.80;97153.95;1801191;79;21135;-88
2021/01/10 01:39:31;;;;;;;28.52;15.85;;;;;;;-1.04;76.80;97153.95;1801127;80;21131;-88
2021/01/10 01:41:59;;;;;;;30.02;15.35;;;;;;;-0.91;76.72;97169.65;1800998;80;21538;-88
2021/01/10 01:44:27;;;;;;;32.40;15.85;;;;;;;-1.08;76.19;97150.14;1801159;80;21269;-88
2021/01/10 01:46:54;;;;;;;27.05;14.35;;;;;;;-1.08;76.19;97150.14;1801073;80;21131;-89
2021/01/10 01:49:23;;;;;;;22.67;12.73;;;;;;;-1.04;76.17;97159.16;1801042;79;21269;-88
2021/01/10 01:51:51;;;;;;;26.62;14.80;;;;;;;-1.04;76.17;97159.16;1801134;80;21143;-89
2021/01/10 01:54:20;;;;;;;28.85;14.15;;;;;;;-0.92;75.86;97172.45;1801074;80;21099;-88
2021/01/10 01:56:47;;;;;;;25.05;14.70;;;;;;;-0.92;75.69;97173.75;1801226;80;21119;-88
2021/01/10 01:59:14;;;;;;;25.62;14.03;;;;;;;-0.95;75.74;97171.03;1801333;80;21160;-88
2021/01/10 02:01:42;;;;;;;23.22;12.50;;;;;;;-0.92;75.74;97167.24;1801136;79;21156;-88
2021/01/10 02:04:23;;;;;;;33.53;17.00;;;;;;;-0.87;75.79;97166.66;1801040;79;21273;-89
2021/01/10 02:07:01;;;;;;;25.55;14.30;;;;;;;-0.95;75.53;97165.03;1801083;79;21246;-88
2021/01/10 02:09:31;;;;;;;32.33;16.90;;;;;;;-1.00;75.51;97168.68;1801095;79;21289;-88
2021/01/10 02:12:03;;;;;;;30.12;16.80;;;;;;;-1.08;75.45;97169.66;1801160;80;21561;-88
2021/01/10 02:14:35;;;;;;;30.50;16.02;;;;;;;-1.12;75.59;97176.73;1801393;80;21138;-88
2021/01/10 02:17:03;;;;;;;31.87;16.37;;;;;;;-1.27;75.86;97155.53;1801175;79;21107;-88
2021/01/10 02:19:39;;;;;;;26.33;15.50;;;;;;;-1.27;75.86;97155.53;1800972;79;21172;-88
2021/01/10 02:22:06;;;;;;;29.77;15.23;;;;;;;-1.15;76.01;97179.20;1800029;79;21535;-88
2021/01/10 02:24:35;;;;;;;29.70;16.30;;;;;;;-1.12;76.03;97174.14;1801874;79;21170;-88
2021/01/10 02:27:05;;;;;;;32.23;16.10;;;;;;;-1.29;76.11;97157.49;1801936;80;21124;-89
2021/01/10 02:29:36;;;;;;;30.23;17.77;;;;;;;-1.29;76.11;97157.49;1802202;79;21131;-88
2021/01/10 02:32:05;;;;;;;31.42;17.25;;;;;;;-1.22;76.21;97165.36;1801889;79;21107;-88
2021/01/10 02:34:35;;;;;;;34.10;17.87;;;;;;;-1.24;76.31;97173.35;1802189;79;21140;-88
2021/01/10 02:37:23;;;;;;;32.78;16.57;;;;;;;-1.26;76.34;97176.64;1802107;80;21401;-89
2021/01/10 02:40:17;;;;;;;35.68;17.10;;;;;;;-1.27;76.34;97176.34;1801564;79;21092;-88
2021/01/10 02:43:13;;;;;;;38.23;19.20;;;;;;;-1.24;76.49;97183.76;1801301;79;21123;-88
2021/01/10 02:45:42;;;;;;;35.98;18.12;;;;;;;-1.15;76.55;97176.59;1802032;79;21471;-88
2021/01/10 02:48:14;;;;;;;35.75;18.48;;;;;;;-1.06;76.52;97181.97;1801860;79;21119;-88
2021/01/10 02:50:42;;;;;;;32.03;16.82;;;;;;;-1.08;76.30;97159.74;1801884;80;21112;-88
2021/01/10 02:53:09;;;;;;;29.32;16.45;;;;;;;-1.08;76.30;97159.74;1802111;80;21127;-88
2021/01/10 02:55:37;;;;;;;31.93;17.57;;;;;;;-0.96;76.27;97174.64;1801978;79;21095;-88
2021/01/10 02:58:12;;;;;;;32.55;17.65;;;;;;;-0.97;76.18;97174.33;1801815;79;21134;-88
2021/01/10 03:00:41;;;;;;;31.35;17.87;;;;;;;-0.94;76.19;97170.04;1800743;79;21156;-88
2021/01/10 03:03:10;;;;;;;29.55;16.10;;;;;;;-0.92;76.16;97171.14;1801833;80;21117;-88
2021/01/10 03:05:37;;;;;;;36.00;15.58;;;;;;;-0.91;76.25;97170.15;1770688;80;21292;-88
2021/01/10 03:08:04;;;;;;;29.55;15.90;;;;;;;-0.87;76.28;97171.86;1770404;80;21298;-88
2021/01/10 03:10:32;;;;;;;32.85;16.32;;;;;;;-0.92;76.22;97169.34;1801954;79;21500;-88
2021/01/10 03:12:59;;;;;;;25.88;14.07;;;;;;;-0.95;76.21;97172.34;1770399;80;21165;-88
2021/01/10 03:15:28;;;;;;;31.20;15.18;;;;;;;-0.99;76.18;97170.28;1770400;80;21136;-88
2021/01/10 03:17:57;;;;;;;32.70;15.80;;;;;;;-1.12;76.03;97172.34;1801861;79;21497;-88
2021/01/10 03:20:24;;;;;;;31.95;16.65;;;;;;;-1.24;76.10;97170.75;1749672;80;21178;-88
2021/01/10 03:22:51;;;;;;;32.70;17.77;;;;;;;-1.33;76.21;97175.78;1758410;81;21531;-88
2021/01/10 03:25:22;;;;;;;30.77;15.38;;;;;;;-1.44;76.28;97169.78;1761522;81;21156;-87
2021/01/10 03:27:49;;;;;;;31.33;16.32;;;;;;;-1.48;76.39;97164.66;1761504;81;21131;-88
2021/01/10 03:30:18;;;;;;;29.95;16.40;;;;;;;-1.51;76.44;97167.15;1761492;81;21484;-88
2021/01/10 03:32:46;;;;;;;30.02;16.62;;;;;;;-1.54;76.51;97167.53;1738771;82;21326;-87
2021/01/10 03:35:15;;;;;;;26.97;15.58;;;;;;;-1.62;76.54;97165.55;1733115;83;21145;-88
2021/01/10 03:37:43;;;;;;;32.65;17.50;;;;;;;-1.66;76.57;97162.52;1760681;81;21507;-88
2021/01/10 03:40:10;;;;;;;28.12;16.70;;;;;;;-1.70;76.63;97169.06;1760564;81;21193;-88
2021/01/10 03:42:38;;;;;;;28.15;16.87;;;;;;;-1.76;76.65;97170.32;1760567;81;21442;-88
2021/01/10 03:45:14;;;;;;;30.70;14.75;;;;;;;-1.76;76.65;97170.32;1760728;81;21256;-88
2021/01/10 03:47:42;;;;;;;31.57;17.17;;;;;;;-1.78;76.93;97169.70;1760660;81;21484;-88
2021/01/10 03:50:11;;;;;;;31.07;16.02;;;;;;;-1.82;77.05;97166.69;1752870;80;21169;-88
2021/01/10 03:52:38;;;;;;;34.98;18.02;;;;;;;-1.84;77.06;97165.55;1795061;80;21275;-88
2021/01/10 03:55:08;;;;;;;36.23;19.57;;;;;;;-1.85;77.11;97165.23;1795111;80;21289;-88
2021/01/10 03:57:39;;;;;;;36.28;20.77;;;;;;;-1.86;77.24;97162.33;1795145;80;21249;-88
2021/01/10 04:00:10;;;;;;;37.55;20.92;;;;;;;-1.85;77.37;97166.53;1795367;80;21661;-88
2021/01/10 04:02:37;;;;;;;44.70;22.40;;;;;;;-1.85;77.47;97165.73;1795190;80;21270;-88
2021/01/10 04:05:07;;;;;;;44.75;24.77;;;;;;;-1.81;77.51;97172.19;1795165;80;21138;-88
2021/01/10 04:07:34;;;;;;;41.55;22.55;;;;;;;-1.80;77.56;97174.59;1795455;80;21142;-88
2021/01/10 04:10:01;;;;;;;42.15;23.73;;;;;;;-1.85;77.64;97171.73;1795051;80;21151;-88
2021/01/10 04:12:28;;;;;;;55.60;27.62;;;;;;;-1.91;77.70;97173.79;1795161;80;21684;-88
2021/01/10 04:14:56;;;;;;;49.20;27.48;;;;;;;-1.99;77.82;97170.50;1795176;80;21265;-88
2021/01/10 04:17:25;;;;;;;57.20;29.70;;;;;;;-2.08;77.94;97169.83;1795104;80;21645;-88
2021/01/10 04:19:54;;;;;;;61.80;30.52;;;;;;;-2.15;77.96;97165.05;1794856;80;21164;-88
2021/01/10 04:22:22;;;;;;;54.50;30.00;;;;;;;-2.17;78.04;97165.73;1795061;80;21288;-88
2021/01/10 04:24:51;;;;;;;50.48;27.35;;;;;;;-2.21;78.09;97176.18;1792664;80;21175;-88
2021/01/10 04:27:20;;;;;;;46.75;24.43;;;;;;;-2.18;78.21;97171.91;1792066;80;21147;-88
2021/01/10 04:29:47;;;;;;;46.15;24.63;;;;;;;-2.14;78.22;97168.75;1792739;80;21139;-88
2021/01/10 04:32:15;;;;;;;44.35;23.05;;;;;;;-2.10;78.18;97180.41;1792138;80;21285;-88
2021/01/10 04:34:42;;;;;;;44.88;23.77;;;;;;;-2.08;78.13;97180.72;1792437;80;21273;-88
2021/01/10 04:37:10;;;;;;;48.00;24.50;;;;;;;-2.05;78.06;97178.55;1792190;80;21626;-88
2021/01/10 04:39:37;;;;;;;48.10;24.32;;;;;;;-2.06;77.97;97179.53;1792227;80;21626;-88
2021/01/10 04:42:05;;;;;;;43.85;20.65;;;;;;;-2.06;77.93;97178.23;1792214;80;21270;-88
2021/01/10 04:44:33;;;;;;;39.78;19.73;;;;;;;-2.10;77.79;97181.70;1792187;80;21306;-88
2021/01/10 04:47:00;;;;;;;38.23;19.37;;;;;;;-2.15;77.71;97176.73;1792487;80;21606;-88
2021/01/10 04:49:29;;;;;;;38.38;18.98;;;;;;;-2.19;77.73;97175.00;1791861;80;21155;-88
2021/01/10 04:51:57;;;;;;;32.90;17.77;;;;;;;-2.23;77.61;97175.56;1792283;80;21139;-88
2021/01/10 04:54:27;;;;;;;28.20;15.60;;;;;;;-2.32;77.53;97176.66;1792234;80;21265;-88
2021/01/10 04:56:57;;;;;;;31.10;15.03;;;;;;;-2.38;77.49;97176.90;1792388;80;21140;-88
2021/01/10 04:59:27;;;;;;;30.37;15.95;;;;;;;-2.42;77.48;97180.33;1792459;80;21285;-88
2021/01/10 05:02:00;;;;;;;26.97;15.50;;;;;;;-2.46;77.45;97172.60;1792519;80;21143;-88
2021/01/10 05:04:30;;;;;;;28.23;15.70;;;;;;;-2.43;77.68;97176.13;1792153;80;21311;-88
2021/01/10 05:06:59;;;;;;;;;;;;;;;-2.46;77.61;97176.50;1794865;80;21495;-87
2021/01/10 05:09:27;;;;;;;19.32;9.88;;;;;;;-2.51;77.55;97177.55;1792224;80;20413;-88
2021/01/10 05:11:55;;;;;;;23.42;12.65;;;;;;;-2.59;77.58;97181.53;1792196;80;21268;-88
2021/01/10 05:14:22;;;;;;;21.87;12.50;;;;;;;-2.82;77.65;97187.30;1792126;80;21294;-87
2021/01/10 05:16:49;;;;;;;25.60;12.33;;;;;;;-2.98;77.84;97189.59;1792210;80;21119;-88
2021/01/10 05:19:21;;;;;;;19.35;10.93;;;;;;;-3.09;78.08;97193.45;1791776;80;21657;-87
2021/01/10 05:21:48;;;;;;;20.48;11.28;;;;;;;-3.12;78.34;97193.78;1792447;80;21171;-88
2021/01/10 05:24:20;;;;;;;19.80;11.18;;;;;;;-3.24;78.38;97196.98;1785268;80;21187;-87
2021/01/10 05:26:48;;;;;;;21.05;10.78;;;;;;;-3.32;78.57;97192.20;1773221;81;21121;-88
2021/01/10 05:29:15;;;;;;;19.92;9.85;;;;;;;-3.32;78.70;97193.50;1743357;81;21504;-87
2021/01/10 05:31:46;;;;;;;20.85;10.25;;;;;;;-3.40;78.60;97190.16;1837796;78;21111;-87
2021/01/10 05:34:17;;;;;;;17.25;9.70;;;;;;;-3.44;78.83;97196.20;1835299;78;21113;-87
2021/01/10 05:36:46;;;;;;;20.80;10.55;;;;;;;-3.47;78.88;97197.05;1831684;78;21104;-87
2021/01/10 05:39:30;;;;;;;20.70;11.08;;;;;;;-3.49;78.94;97195.13;1831652;78;21477;-87
2021/01/10 05:42:01;;;;;;;19.90;10.38;;;;;;;-3.52;79.01;97197.55;1831914;78;21144;-88
2021/01/10 05:44:32;;;;;;;18.15;9.83;;;;;;;-3.54;79.02;97196.92;1780283;80;21266;-88
2021/01/10 05:47:09;;;;;;;16.95;9.50;;;;;;;-3.55;79.02;97192.72;1819236;78;21124;-88
2021/01/10 05:52:33;;;;;;;18.77;9.58;;;;;;;-3.58;78.93;97193.08;1821815;77;23045;-87
2021/01/10 05:55:05;;;;;;;20.82;9.68;;;;;;;-3.69;78.96;97190.41;1764006;80;21118;-86
2021/01/10 05:57:32;;;;;;;16.25;9.53;;;;;;;-3.76;79.25;97191.28;1791561;80;21506;-88
2021/01/10 06:00:05;;;;;;;20.80;11.25;;;;;;;-3.84;79.61;97193.44;1765177;80;21147;-88
2021/01/10 06:02:35;;;;;;;19.35;10.28;;;;;;;-3.92;79.66;97196.91;1761144;81;21478;-87
2021/01/10 06:05:19;;;;;;;18.27;10.53;;;;;;;-3.98;79.77;97200.66;1761141;81;21127;-87
2021/01/10 06:07:49;;;;;;;20.65;10.75;;;;;;;-4.00;79.94;97202.61;1761178;81;21534;-87
2021/01/10 06:10:30;;;;;;;19.98;10.32;;;;;;;-3.99;79.94;97204.22;1760965;80;21150;-87
2021/01/10 06:13:07;;;;;;;18.50;10.25;;;;;;;-4.02;79.89;97200.20;1761133;81;21483;-88
2021/01/10 06:15:36;;;;;;;18.10;9.95;;;;;;;-4.08;79.75;97197.47;1761034;81;21103;-88
2021/01/10 06:18:05;;;;;;;22.35;10.40;;;;;;;-4.08;79.74;97200.06;1761327;80;21131;-88
2021/01/10 06:20:34;;;;;;;17.05;9.10;;;;;;;-4.07;79.67;97196.03;1761054;81;21151;-88
2021/01/10 06:23:04;;;;;;;17.95;10.23;;;;;;;-4.08;79.60;97198.77;1761314;81;21122;-88
2021/01/10 06:25:37;;;;;;;17.05;9.68;;;;;;;-4.21;79.48;97209.22;1761190;81;21518;-88
2021/01/10 06:28:14;;;;;;;24.95;13.13;;;;;;;-4.43;79.54;97211.75;1760979;80;21488;-88
2021/01/10 06:31:00;;;;;;;24.00;11.93;;;;;;;-4.53;79.81;97208.88;1760956;81;21124;-88
2021/01/10 06:33:32;;;;;;;22.07;10.60;;;;;;;-4.59;80.08;97214.73;1733639;81;21130;-88
2021/01/10 06:36:05;;;;;;;19.70;10.40;;;;;;;-4.55;80.35;97216.00;1760990;81;21151;-88
2021/01/10 06:38:36;;;;;;;21.10;10.93;;;;;;;-4.57;80.34;97217.15;1760942;80;21162;-88
2021/01/10 06:41:46;;;;;;;20.37;10.75;;;;;;;-4.53;80.43;97218.42;1760872;81;21095;-88
2021/01/10 06:44:13;;;;;;;19.17;10.10;;;;;;;-4.56;80.46;97218.27;1760907;81;21126;-88
2021/01/10 06:46:45;;;;;;;19.52;10.82;;;;;;;-4.57;80.80;97222.33;1761071;81;21131;-88
2021/01/10 06:49:12;;;;;;;19.62;10.75;;;;;;;-4.53;80.95;97233.94;1760182;80;21550;-87
2021/01/10 06:51:41;;;;;;;19.48;11.10;;;;;;;-4.48;81.12;97232.97;1760975;81;21526;-87
2021/01/10 06:54:09;;;;;;;19.27;10.93;;;;;;;-4.48;81.10;97239.44;1733509;81;21134;-88
2021/01/10 06:56:36;;;;;;;21.87;11.00;;;;;;;-4.40;81.09;97243.76;1761157;81;21786;-87
2021/01/10 06:59:23;;;;;;;19.67;10.78;;;;;;;-4.30;81.02;97251.64;1760896;80;21507;-87
2021/01/10 07:01:56;;;;;;;21.45;10.82;;;;;;;-4.22;80.88;97249.52;1761118;81;21138;-87
2021/01/10 07:07:36;;;;;;;29.92;16.87;;;;;;;-4.11;80.96;97247.02;1877999;76;23025;-86
2021/01/10 07:10:06;;;;;;;;;;;;;;;-4.04;81.27;97257.03;1851512;77;21127;-86
2021/01/10 07:12:33;;;;;;;24.17;12.27;;;;;;;-3.96;81.53;97252.59;1853129;77;20103;-86
2021/01/10 07:15:22;;;;;;;26.93;14.45;;;;;;;-3.83;81.58;97260.29;1801783;79;21155;-86
2021/01/10 07:18:08;;;;;;;25.32;14.47;;;;;;;-3.55;81.62;97256.70;1768615;80;21151;-87
2021/01/10 07:20:40;;;;;;;31.68;16.67;;;;;;;-2.96;81.47;97255.55;1792650;80;21135;-87
2021/01/10 07:23:30;;;;;;;33.90;18.20;;;;;;;-2.45;80.83;97255.18;1793202;80;21128;-87
2021/01/10 07:25:58;;;;;;;;;;;;;;;-2.06;80.29;97252.27;1795687;80;21167;-87
2021/01/10 07:28:33;;;;;;;35.43;18.77;;;;;;;-1.76;79.36;97262.09;1793056;79;20139;-87
2021/01/10 07:31:13;;;;;;;41.15;20.65;;;;;;;-1.56;78.87;97259.18;1793061;79;21504;-87
2021/01/10 07:33:41;;;;;;;;;;;;;;;-1.41;77.96;97259.12;1794826;80;21123;-88
2021/01/10 07:36:09;;;;;;;29.67;17.45;;;;;;;-1.33;77.50;97256.41;1793093;79;20115;-88
2021/01/10 07:38:40;;;;;;;33.30;18.52;;;;;;;-1.19;76.92;97259.92;1793367;79;21142;-88
2021/01/10 07:41:28;;;;;;;31.93;18.77;;;;;;;-1.03;76.74;97260.14;1793263;80;21131;-88
2021/01/10 07:43:57;;;;;;;33.98;21.12;;;;;;;-0.90;76.68;97257.14;1793029;79;21123;-88
2021/01/10 07:46:59;;;;;;;33.05;18.32;;;;;;;-0.69;76.99;97258.89;1793228;79;21151;-88
2021/01/10 07:49:31;;;;;;;30.82;18.92;;;;;;;-0.30;76.64;97258.79;1792981;79;21151;-88
2021/01/10 07:51:59;;;;;;;41.83;23.25;;;;;;;0.01;76.42;97257.54;1793178;79;21475;-88
2021/01/10 07:54:53;;;;;;;39.95;23.55;;;;;;;0.15;76.03;97266.52;1792952;79;21488;-88
2021/01/10 07:57:28;;;;;;;35.55;20.75;;;;;;;0.18;75.51;97267.91;1793143;79;21535;-88
2021/01/10 08:00:18;;;;;;;41.80;22.82;;;;;;;0.58;75.69;97262.30;1792992;80;21168;-88
2021/01/10 08:02:53;;;;;;;35.52;20.88;;;;;;;0.68;74.65;97263.99;1793186;79;21127;-88
2021/01/10 08:05:34;;;;;;;37.95;20.65;;;;;;;0.79;74.50;97268.62;1793173;79;21147;-88
2021/01/10 08:08:14;;;;;;;42.17;22.40;;;;;;;0.96;73.37;97263.81;1793118;80;21131;-88
2021/01/10 08:10:55;;;;;;;29.55;17.40;;;;;;;0.85;73.54;97263.93;1793190;79;21119;-88
2021/01/10 08:13:35;;;;;;;35.70;20.80;;;;;;;1.01;72.84;97269.75;1793158;79;21128;-88
2021/01/10 08:16:15;;;;;;;;;;;;;;;0.57;72.07;97274.54;1795735;79;21127;-89
2021/01/10 08:18:45;;;;;;;40.70;24.35;;;;;;;0.38;72.65;97267.96;1788291;80;20445;-89
2021/01/10 08:21:18;;;;;;;36.60;22.07;;;;;;;0.23;72.61;97271.53;1792272;79;21119;-89
2021/01/10 08:23:53;;;;;;;36.05;19.32;;;;;;;0.10;72.44;97264.97;1792494;80;21606;-89
2021/01/10 08:26:20;;;;;;;39.38;21.60;;;;;;;0.02;72.48;97266.97;1791992;80;21176;-89
2021/01/10 08:28:53;;;;;;;36.77;20.75;;;;;;;-0.13;72.48;97273.13;1792393;80;21282;-88
2021/01/10 08:31:24;;;;;;;41.02;22.30;;;;;;;-0.10;73.35;97271.92;1792393;79;21310;-89
2021/01/10 08:34:05;;;;;;;38.63;22.77;;;;;;;-0.04;73.37;97273.74;1792509;79;21610;-89
2021/01/10 08:36:36;;;;;;;39.55;22.62;;;;;;;0.08;73.61;97272.69;1791948;80;21281;-88
2021/01/10 08:39:10;;;;;;;30.57;16.73;;;;;;;0.10;73.52;97272.79;1792659;79;21138;-89
2021/01/10 08:41:44;;;;;;;32.25;19.05;;;;;;;0.15;73.33;97274.83;1792414;79;21277;-89
2021/01/10 08:44:20;;;;;;;37.78;22.15;;;;;;;0.03;72.71;97276.39;1792624;80;21285;-89
2021/01/10 08:46:52;;;;;;;30.30;19.85;;;;;;;-0.13;72.94;97273.13;1792532;79;21149;-89
2021/01/10 08:49:23;;;;;;;38.55;20.32;;;;;;;0.09;73.66;97274.30;1792380;79;21219;-89
2021/01/10 08:51:52;;;;;;;37.73;21.12;;;;;;;0.28;73.75;97276.15;1792426;79;21142;-89
2021/01/10 08:54:24;;;;;;;34.85;19.55;;;;;;;0.34;72.69;97278.48;1792396;80;21285;-89
2021/01/10 08:56:56;;;;;;;39.63;21.05;;;;;;;0.28;72.82;97282.67;1792469;79;21251;-89
2021/01/10 08:59:39;;;;;;;34.25;19.67;;;;;;;0.28;72.95;97277.45;1792379;80;21602;-89
2021/01/10 09:02:11;;;;;;;34.58;20.08;;;;;;;0.32;72.56;97278.69;1790456;80;21265;-89
2021/01/10 09:04:44;;;;;;;28.77;17.60;;;;;;;0.34;72.95;97285.81;1792443;79;21258;-89
2021/01/10 09:07:23;;;;;;;32.98;18.23;;;;;;;0.49;72.76;97284.34;1792608;79;21531;-89
2021/01/10 09:10:08;;;;;;;31.15;17.80;;;;;;;0.60;72.38;97287.69;1792973;80;21476;-89
2021/01/10 09:12:39;;;;;;;33.20;18.42;;;;;;;0.67;72.32;97283.27;1792886;80;21492;-89
2021/01/10 09:15:19;;;;;;;29.42;16.55;;;;;;;0.81;72.50;97286.69;1793256;80;21135;-89
2021/01/10 09:17:57;;;;;;;;;;;;;;;0.95;72.16;97275.76;1778884;80;21132;-89
2021/01/10 09:20:32;;;;;;;27.70;15.48;;;;;;;0.91;71.51;97281.89;1793019;79;20116;-89
2021/01/10 09:23:08;;;;;;;32.88;19.00;;;;;;;0.97;71.43;97286.30;1792955;80;21115;-89
2021/01/10 09:25:36;;;;;;;35.58;21.12;;;;;;;0.91;71.24;97283.20;1792903;79;21432;-89
2021/01/10 09:28:16;;;;;;;33.13;18.60;;;;;;;0.85;71.18;97285.31;1793164;80;21139;-89
2021/01/10 09:30:58;;;;;;;32.25;20.57;;;;;;;0.83;70.83;97289.90;1793056;79;21115;-89
2021/01/10 09:33:32;;;;;;;31.93;17.62;;;;;;;0.79;70.94;97295.23;1793016;79;21150;-88
2021/01/10 09:36:03;;;;;;;32.35;17.70;;;;;;;0.88;71.04;97287.02;1793006;79;21476;-89
2021/01/10 09:38:32;;;;;;;28.10;16.75;;;;;;;0.93;70.88;97287.71;1793070;80;21115;-89
2021/01/10 09:41:13;;;;;;;30.52;18.52;;;;;;;0.96;70.58;97284.69;1793134;80;21100;-89
2021/01/10 09:43:54;;;;;;;35.83;19.43;;;;;;;0.94;70.54;97285.39;1793338;79;21111;-89
2021/01/10 09:46:36;;;;;;;;;;;;;;;0.94;70.36;97286.70;1795662;79;21307;-89
2021/01/10 09:49:20;;;;;;;35.05;19.73;;;;;;;0.91;70.26;97280.58;1792808;80;20111;-89
2021/01/10 09:52:06;;;;;;;32.60;17.80;;;;;;;0.98;70.81;97274.84;1792949;79;21116;-90
2021/01/10 09:54:36;;;;;;;32.98;17.95;;;;;;;1.05;69.69;97278.78;1766734;80;21536;-90
2021/01/10 09:57:16;;;;;;;36.77;20.25;;;;;;;1.04;69.93;97273.27;1792931;79;21108;-89
2021/01/10 10:00:02;;;;;;;39.08;21.10;;;;;;;1.08;69.71;97279.67;1793077;80;21135;-90
2021/01/10 10:02:36;;;;;;;40.38;22.20;;;;;;;1.18;70.21;97274.36;1792438;80;21135;-89
2021/01/10 10:05:22;;;;;;;35.50;21.17;;;;;;;1.15;69.28;97276.08;1793135;80;21454;-89
2021/01/10 10:07:52;;;;;;;47.20;26.48;;;;;;;1.15;68.91;97272.16;1792850;80;21124;-89
2021/01/10 10:10:34;;;;;;;39.50;22.62;;;;;;;1.02;69.20;97270.05;1793061;80;21108;-89
2021/01/10 10:13:06;;;;;;;39.63;20.70;;;;;;;1.05;69.26;97270.44;1792862;79;21128;-88
2021/01/10 10:15:49;;;;;;;44.30;25.30;;;;;;;1.12;69.17;97279.06;1793145;79;21467;-89
2021/01/10 10:18:25;;;;;;;42.43;25.48;;;;;;;1.17;69.37;97272.75;1792843;79;21170;-88
2021/01/10 10:20:52;;;;;;;36.93;22.22;;;;;;;1.28;69.74;97267.42;1792640;79;21467;-89
2021/01/10 10:23:19;;;;;;;39.95;24.23;;;;;;;1.46;69.22;97270.20;1792982;79;21484;-88
2021/01/10 10:25:50;;;;;;;41.37;22.35;;;;;;;1.48;68.87;97273.91;1792869;79;21168;-89
2021/01/10 10:28:19;;;;;;;39.25;23.12;;;;;;;1.48;68.65;97270.00;1793425;79;21273;-89
2021/01/10 10:30:47;;;;;;;41.02;23.95;;;;;;;1.55;68.54;97264.27;1793247;80;21147;-88
2021/01/10 10:33:16;;;;;;;36.58;22.45;;;;;;;1.56;68.05;97266.38;1792820;80;21522;-88
2021/01/10 10:35:44;;;;;;;34.30;20.20;;;;;;;1.62;68.29;97265.04;1792982;79;21158;-89
2021/01/10 10:38:11;;;;;;;34.67;19.75;;;;;;;1.76;67.69;97260.08;1792800;80;21155;-89
2021/01/10 10:40:42;;;;;;;34.90;20.20;;;;;;;1.76;67.43;97259.27;1793146;79;21154;-89
2021/01/10 10:43:09;;;;;;;31.73;19.45;;;;;;;1.75;67.24;97258.98;1793023;79;21135;-89
2021/01/10 10:45:36;;;;;;;31.25;19.67;;;;;;;1.79;66.93;97248.40;1792964;80;21536;-89
2021/01/10 10:48:04;;;;;;;31.75;18.05;;;;;;;1.70;66.86;97250.45;1792837;79;21100;-89
2021/01/10 10:50:33;;;;;;;32.78;20.50;;;;;;;1.69;66.32;97247.55;1792572;80;21148;-89
2021/01/10 10:53:01;;;;;;;27.20;15.00;;;;;;;1.55;65.79;97245.14;1792819;79;21172;-89
2021/01/10 10:55:30;;;;;;;31.62;17.27;;;;;;;1.56;66.20;97239.74;1793054;80;21507;-90
2021/01/10 10:57:58;;;;;;;32.45;18.60;;;;;;;1.69;66.19;97246.71;1792983;80;21139;-89
2021/01/10 11:00:25;;;;;;;27.40;15.98;;;;;;;1.79;66.30;97234.83;1793006;79;21151;-89
2021/01/10 11:02:52;;;;;;;23.60;13.70;;;;;;;1.88;65.59;97241.14;1792804;79;21135;-89
2021/01/10 11:05:22;;;;;;;18.48;11.75;;;;;;;1.85;64.69;97235.83;1793045;79;21138;-89
2021/01/10 11:07:49;;;;;;;22.37;14.55;;;;;;;1.85;64.55;97231.10;1793078;80;21155;-89
2021/01/10 11:10:17;;;;;;;20.95;12.25;;;;;;;1.78;64.32;97229.30;1793074;79;21168;-89
2021/01/10 11:12:44;;;;;;;18.82;11.10;;;;;;;1.82;64.54;97224.45;1792854;80;21131;-89
2021/01/10 11:15:13;;;;;;;20.97;11.65;;;;;;;1.90;63.72;97218.20;1792941;80;21147;-89
2021/01/10 11:17:41;;;;;;;22.67;13.32;;;;;;;1.84;63.00;97220.35;1793040;80;21171;-90
2021/01/10 11:20:09;;;;;;;25.90;15.08;;;;;;;1.78;63.53;97218.84;1792670;80;21147;-89
2021/01/10 11:22:36;;;;;;;27.48;15.55;;;;;;;1.81;64.31;97212.39;1792792;80;21500;-90
2021/01/10 11:25:06;;;;;;;25.43;12.85;;;;;;;1.85;63.84;97209.69;1793032;80;21155;-89
2021/01/10 11:27:33;;;;;;;22.87;11.63;;;;;;;1.87;62.94;97214.70;1792875;80;21491;-90
2021/01/10 11:30:04;;;;;;;17.30;10.20;;;;;;;1.81;63.34;97215.52;1792962;80;21517;-90
2021/01/10 11:32:34;;;;;;;17.27;9.43;;;;;;;1.95;63.46;97217.86;1792839;79;21156;-89
2021/01/10 11:35:01;;;;;;;16.75;8.93;;;;;;;2.07;62.50;97218.02;1792911;79;21124;-89
2021/01/10 11:37:29;;;;;;;14.95;8.40;;;;;;;2.03;61.78;97222.06;1793141;79;21138;-89
2021/01/10 11:39:56;;;;;;;18.25;10.50;;;;;;;1.82;60.58;97215.80;1792967;79;21194;-89
2021/01/10 11:42:24;;;;;;;21.70;11.73;;;;;;;1.74;61.45;97215.55;1787452;79;21117;-90
2021/01/10 11:44:53;;;;;;;23.67;13.53;;;;;;;1.63;61.16;97218.30;1761723;81;21325;-89
2021/01/10 11:47:25;;;;;;;20.02;12.23;;;;;;;1.58;61.92;97212.09;1761756;81;21192;-90